createdAt,value
2019-02-17T00:02:26.662Z,38.00
2019-02-17T00:04:57.103Z,30.50
2019-02-17T00:07:27.958Z,38.57
2019-02-17T00:09:58.900Z,37.17
2019-02-17T00:12:29.489Z,37.03
2019-02-17T00:14:58.559Z,41.40
2019-02-17T00:17:29.198Z,42.23
2019-02-17T00:20:02.414Z,43.10
2019-02-17T00:22:32.224Z,38.97
2019-02-17T00:25:07.503Z,37.90
2019-02-17T00:27:40.853Z,40.67
2019-02-17T00:30:13.325Z,41.43
2019-02-17T00:32:44.721Z,38.10
2019-02-17T00:35:14.504Z,35.60
2019-02-17T00:37:44.830Z,34.40
2019-02-17T00:40:15.143Z,35.07
2019-02-17T00:42:46.001Z,42.80
2019-02-17T00:45:16.883Z,37.23
2019-02-17T00:47:46.494Z,38.80
2019-02-17T00:50:17.810Z,46.07
2019-02-17T00:52:48.238Z,32.67
2019-02-17T00:55:18.662Z,40.03
2019-02-17T00:57:49.231Z,37.38
2019-02-17T01:00:22.834Z,35.27
2019-02-17T01:02:52.670Z,38.60
2019-02-17T01:05:22.527Z,34.87
2019-02-17T01:07:52.350Z,40.75
2019-02-17T01:10:23.791Z,39.50
2019-02-17T01:12:53.417Z,40.47
2019-02-17T01:15:23.512Z,37.83
2019-02-17T01:17:53.891Z,38.50
2019-02-17T01:20:23.270Z,36.13
2019-02-17T01:22:53.674Z,32.37
2019-02-17T01:25:25.709Z,40.07
2019-02-17T01:27:55.362Z,32.30
2019-02-17T01:30:28.690Z,33.23
2019-02-17T01:32:58.702Z,36.53
2019-02-17T01:35:31.262Z,34.10
2019-02-17T01:38:01.123Z,33.70
2019-02-17T01:40:30.206Z,33.67
2019-02-17T01:43:00.482Z,38.17
2019-02-17T01:45:30.334Z,35.00
2019-02-17T01:48:00.682Z,35.03
2019-02-17T01:50:31.470Z,34.20
2019-02-17T01:53:01.864Z,35.63
2019-02-17T01:55:33.955Z,38.30
2019-02-17T01:58:05.298Z,35.90
2019-02-17T02:00:35.697Z,34.83
2019-02-17T02:03:05.312Z,39.03
2019-02-17T02:05:34.404Z,34.00
2019-02-17T02:08:04.223Z,33.10
2019-02-17T02:10:33.277Z,35.83
2019-02-17T02:13:04.591Z,30.17
2019-02-17T02:15:34.480Z,37.87
2019-02-17T02:18:05.870Z,34.20
2019-02-17T02:20:36.655Z,33.30
2019-02-17T02:23:07.213Z,29.50
2019-02-17T02:25:39.214Z,29.37
2019-02-17T02:28:09.507Z,31.17
2019-02-17T02:30:40.374Z,29.30
2019-02-17T02:33:10.147Z,30.60
2019-02-17T02:35:40.173Z,29.20
2019-02-17T02:38:09.218Z,30.10
2019-02-17T02:40:39.519Z,30.17
2019-02-17T02:43:08.591Z,29.30
2019-02-17T02:45:39.185Z,30.20
2019-02-17T02:48:12.597Z,33.23
2019-02-17T02:50:44.046Z,32.48
2019-02-17T02:53:14.478Z,30.23
2019-02-17T02:55:45.072Z,32.23
2019-02-17T02:58:15.636Z,28.20
2019-02-17T03:00:45.472Z,27.80
2019-02-17T03:03:13.765Z,29.70
2019-02-17T03:05:44.449Z,39.67
2019-02-17T03:08:13.539Z,30.13
2019-02-17T03:10:44.301Z,32.67
2019-02-17T03:13:15.667Z,30.80
2019-02-17T03:15:46.223Z,29.80
2019-02-17T03:18:16.740Z,27.43
2019-02-17T03:20:47.311Z,35.67
2019-02-17T03:23:18.596Z,30.23
2019-02-17T03:25:48.687Z,36.93
2019-02-17T03:28:19.570Z,31.93
2019-02-17T03:30:50.199Z,30.40
2019-02-17T03:33:23.541Z,31.70
2019-02-17T03:35:54.318Z,35.68
2019-02-17T03:38:26.031Z,33.60
2019-02-17T03:40:56.317Z,31.77
2019-02-17T03:43:27.118Z,28.40
2019-02-17T03:45:58.446Z,31.10
2019-02-17T03:48:28.289Z,33.85
2019-02-17T03:50:58.899Z,31.73
2019-02-17T03:53:29.314Z,33.23
2019-02-17T03:56:00.683Z,32.20
2019-02-17T03:58:31.396Z,32.63
2019-02-17T04:01:01.221Z,31.70
2019-02-17T04:03:30.307Z,33.27
2019-02-17T04:06:01.648Z,33.00
2019-02-17T04:08:32.255Z,33.07
2019-02-17T04:11:02.713Z,32.33
2019-02-17T04:13:32.239Z,31.70
2019-02-17T04:16:02.628Z,32.77
2019-02-17T04:18:33.246Z,35.83
2019-02-17T04:21:04.624Z,35.77
2019-02-17T04:23:35.475Z,34.33
2019-02-17T04:26:05.092Z,30.33
2019-02-17T04:28:35.187Z,33.67
2019-02-17T04:31:05.167Z,32.77
2019-02-17T04:33:36.545Z,37.43
2019-02-17T04:36:06.178Z,28.30
2019-02-17T04:38:35.813Z,33.40
2019-02-17T04:41:10.545Z,31.27
2019-02-17T04:43:42.064Z,28.15
2019-02-17T04:46:12.495Z,30.73
2019-02-17T04:48:43.155Z,28.77
2019-02-17T04:51:14.563Z,34.87
2019-02-17T04:53:45.240Z,33.45
2019-02-17T04:56:16.583Z,28.37
2019-02-17T04:58:47.374Z,29.27
2019-02-17T05:01:17.662Z,33.70
2019-02-17T05:03:48.910Z,29.65
2019-02-17T05:06:19.487Z,31.23
2019-02-17T05:08:49.202Z,30.97
2019-02-17T05:11:20.546Z,33.83
2019-02-17T05:13:50.383Z,29.98
2019-02-17T05:16:20.977Z,30.73
2019-02-17T05:18:52.423Z,30.67
2019-02-17T05:21:25.621Z,28.50
2019-02-17T05:23:56.465Z,32.95
2019-02-17T05:26:26.850Z,31.48
2019-02-17T05:28:57.282Z,27.50
2019-02-17T05:31:28.533Z,30.07
2019-02-17T05:33:59.311Z,29.17
2019-02-17T05:36:29.330Z,33.83
2019-02-17T05:38:58.412Z,34.50
2019-02-17T05:41:28.913Z,31.17
2019-02-17T05:43:58.767Z,36.50
2019-02-17T05:46:30.158Z,32.13
2019-02-17T05:49:01.522Z,27.97
2019-02-17T05:51:32.061Z,32.43
2019-02-17T05:54:02.132Z,35.73
2019-02-17T05:56:32.498Z,33.87
2019-02-17T05:59:05.907Z,30.77
2019-02-17T06:01:34.949Z,27.93
2019-02-17T06:04:09.224Z,31.40
2019-02-17T06:06:40.138Z,30.60
2019-02-17T06:09:11.443Z,27.27
2019-02-17T06:11:42.002Z,34.43
2019-02-17T06:14:13.362Z,29.07
2019-02-17T06:16:44.707Z,29.37
2019-02-17T06:19:17.798Z,31.43
2019-02-17T06:21:49.199Z,27.10
2019-02-17T06:24:19.041Z,30.17
2019-02-17T06:26:50.307Z,29.60
2019-02-17T06:29:23.567Z,28.87
2019-02-17T06:31:53.329Z,31.73
2019-02-17T06:34:22.976Z,27.53
2019-02-17T06:36:53.009Z,29.67
2019-02-17T06:39:24.471Z,28.77
2019-02-17T06:41:54.366Z,30.25
2019-02-17T06:44:25.749Z,25.80
2019-02-17T06:46:57.779Z,25.23
2019-02-17T06:49:29.159Z,27.27
2019-02-17T06:52:00.595Z,22.65
2019-02-17T06:54:30.910Z,29.00
2019-02-17T06:57:05.906Z,22.90
2019-02-17T06:59:36.813Z,21.60
2019-02-17T07:02:06.724Z,19.90
2019-02-17T07:04:55.463Z,20.63
2019-02-17T07:07:28.976Z,23.43
2019-02-17T07:10:00.815Z,19.20
2019-02-17T07:12:31.207Z,16.57
2019-02-17T07:15:06.462Z,22.50
2019-02-17T07:17:36.867Z,19.97
2019-02-17T07:22:41.071Z,18.93
2019-02-17T07:25:12.339Z,15.30
2019-02-17T07:27:41.811Z,16.67
2019-02-17T07:30:19.747Z,18.20
2019-02-17T07:32:49.611Z,17.77
2019-02-17T07:35:20.270Z,16.50
2019-02-17T07:37:50.109Z,15.43
2019-02-17T07:40:21.485Z,14.63
2019-02-17T07:42:51.215Z,17.23
2019-02-17T07:45:21.627Z,16.20
2019-02-17T07:47:52.898Z,15.15
2019-02-17T07:50:24.142Z,16.50
2019-02-17T07:52:54.077Z,20.07
2019-02-17T07:55:25.433Z,17.57
2019-02-17T07:57:55.051Z,18.90
2019-02-17T08:00:25.206Z,15.83
2019-02-17T08:02:55.017Z,13.70
2019-02-17T08:05:26.293Z,14.77
2019-02-17T08:07:57.103Z,15.10
2019-02-17T08:10:27.889Z,17.20
2019-02-17T08:12:57.746Z,15.57
2019-02-17T08:15:29.107Z,18.40
2019-02-17T08:17:59.490Z,17.37
2019-02-17T08:20:30.117Z,17.10
2019-02-17T08:22:59.797Z,17.17
2019-02-17T08:25:30.408Z,18.57
2019-02-17T08:28:01.276Z,16.42
2019-02-17T08:30:30.915Z,18.07
2019-02-17T08:33:02.254Z,17.40
2019-02-17T08:35:33.541Z,18.50
2019-02-17T08:38:04.173Z,21.50
2019-02-17T08:40:35.089Z,19.90
2019-02-17T08:43:11.158Z,20.80
2019-02-17T08:45:41.713Z,19.07
2019-02-17T08:48:11.279Z,17.27
2019-02-17T08:50:40.990Z,16.13
2019-02-17T08:53:09.249Z,18.33
2019-02-17T08:55:37.876Z,22.30
2019-02-17T08:58:13.011Z,18.50
2019-02-17T09:00:42.661Z,16.83
2019-02-17T09:03:12.430Z,16.32
2019-02-17T09:05:44.457Z,17.43
2019-02-17T09:08:14.554Z,20.73
2019-02-17T09:10:45.929Z,17.17
2019-02-17T09:13:18.562Z,21.93
2019-02-17T09:15:49.415Z,21.37
2019-02-17T09:18:20.053Z,19.17
2019-02-17T09:20:51.430Z,24.77
2019-02-17T09:23:21.921Z,21.70
2019-02-17T09:25:51.951Z,21.77
2019-02-17T09:28:22.366Z,17.83
2019-02-17T09:30:53.269Z,20.87
2019-02-17T09:33:23.169Z,18.90
2019-02-17T09:35:51.408Z,18.82
2019-02-17T09:38:22.895Z,19.67
2019-02-17T09:40:54.319Z,18.20
2019-02-17T09:43:25.103Z,24.77
2019-02-17T09:45:56.405Z,19.25
2019-02-17T09:48:27.760Z,21.90
2019-02-17T09:51:00.114Z,21.50
2019-02-17T09:53:30.485Z,19.97
2019-02-17T09:56:00.905Z,18.45
2019-02-17T09:58:32.141Z,18.77
2019-02-17T10:01:02.969Z,18.33
2019-02-17T10:03:35.887Z,23.70
2019-02-17T10:06:06.253Z,15.80
2019-02-17T10:08:41.362Z,16.77
2019-02-17T10:11:12.752Z,17.80
2019-02-17T10:13:44.246Z,18.70
2019-02-17T10:16:16.243Z,18.43
2019-02-17T10:18:47.082Z,17.60
2019-02-17T10:21:22.128Z,17.13
2019-02-17T10:23:52.721Z,17.80
2019-02-17T10:26:23.470Z,17.43
2019-02-17T10:28:54.898Z,22.70
2019-02-17T10:31:28.110Z,17.70
2019-02-17T10:33:58.004Z,18.15
2019-02-17T10:36:28.750Z,19.37
2019-02-17T10:38:58.767Z,15.77
2019-02-17T10:41:28.751Z,17.50
2019-02-17T10:43:58.863Z,15.50
2019-02-17T10:46:28.708Z,17.83
2019-02-17T10:49:01.966Z,17.80
2019-02-17T10:51:34.608Z,14.60
2019-02-17T10:56:39.679Z,16.93
2019-02-17T10:59:09.709Z,16.50
2019-02-17T11:01:40.420Z,15.00
2019-02-17T11:04:10.980Z,18.90
2019-02-17T11:06:41.620Z,14.13
2019-02-17T11:09:23.791Z,14.27
2019-02-17T11:11:56.081Z,15.35
2019-02-17T11:14:26.934Z,13.13
2019-02-17T11:16:58.177Z,12.83
2019-02-17T11:19:26.486Z,13.23
2019-02-17T11:21:56.579Z,10.48
2019-02-17T11:24:26.617Z,11.67
2019-02-17T11:26:57.840Z,15.27
2019-02-17T11:29:28.225Z,13.60
2019-02-17T11:31:57.831Z,13.72
2019-02-17T11:34:28.226Z,18.23
2019-02-17T11:37:00.880Z,12.97
2019-02-17T11:39:30.965Z,12.27
2019-02-17T11:42:02.286Z,15.67
2019-02-17T11:44:32.616Z,13.60
2019-02-17T11:47:03.949Z,10.63
2019-02-17T11:49:33.572Z,13.07
2019-02-17T11:52:04.336Z,15.63
2019-02-17T11:54:35.119Z,14.53
2019-02-17T11:57:05.683Z,16.93
2019-02-17T11:59:38.544Z,14.00
2019-02-17T12:02:07.582Z,12.10
2019-02-17T12:04:39.503Z,13.77
2019-02-17T12:07:09.847Z,12.53
2019-02-17T12:09:40.622Z,14.07
2019-02-17T12:12:13.620Z,12.30
2019-02-17T12:14:43.662Z,16.43
2019-02-17T12:17:15.014Z,12.33
2019-02-17T12:19:45.613Z,19.40
2019-02-17T12:22:17.682Z,12.67
2019-02-17T12:24:48.138Z,15.70
2019-02-17T12:27:22.127Z,13.00
2019-02-17T12:29:54.203Z,15.78
2019-02-17T12:32:28.495Z,12.20
2019-02-17T12:35:01.758Z,14.33
2019-02-17T12:37:34.868Z,13.90
2019-02-17T12:40:05.732Z,12.43
2019-02-17T12:42:37.002Z,11.97
2019-02-17T12:45:10.192Z,12.53
2019-02-17T12:47:41.519Z,11.73
2019-02-17T12:50:14.125Z,15.50
2019-02-17T12:52:47.028Z,13.43
2019-02-17T12:55:15.575Z,14.40
2019-02-17T12:57:46.896Z,12.10
2019-02-17T13:00:20.276Z,10.50
2019-02-17T13:02:51.079Z,10.20
2019-02-17T13:05:22.452Z,13.63
2019-02-17T13:07:53.843Z,12.58
2019-02-17T13:10:25.702Z,12.93
2019-02-17T13:12:55.566Z,10.30
2019-02-17T13:15:26.926Z,10.97
2019-02-17T13:17:57.688Z,14.20
2019-02-17T13:20:30.537Z,13.47
2019-02-17T13:23:01.878Z,11.67
2019-02-17T13:25:32.145Z,11.77
2019-02-17T13:28:03.814Z,12.40
2019-02-17T13:30:36.977Z,17.03
2019-02-17T13:33:06.876Z,13.40
2019-02-17T13:35:37.456Z,15.43
2019-02-17T13:38:07.142Z,15.47
2019-02-17T13:40:37.575Z,15.00
2019-02-17T13:43:11.621Z,16.97
2019-02-17T13:45:40.987Z,11.83
2019-02-17T13:48:10.104Z,16.60
2019-02-17T13:50:43.917Z,11.70
2019-02-17T13:53:14.720Z,15.30
2019-02-17T13:55:46.745Z,11.73
2019-02-17T13:58:17.320Z,13.53
2019-02-17T14:00:48.686Z,12.73
2019-02-17T14:03:22.848Z,19.07
2019-02-17T14:05:53.423Z,14.68
2019-02-17T14:08:25.295Z,20.10
2019-02-17T14:10:56.670Z,13.43
2019-02-17T14:13:27.949Z,18.73
2019-02-17T14:15:57.608Z,14.05
2019-02-17T14:18:30.931Z,12.93
2019-02-17T14:21:01.814Z,20.47
2019-02-17T14:23:33.163Z,13.23
2019-02-17T14:26:06.127Z,13.00
2019-02-17T14:28:38.644Z,11.63
2019-02-17T14:31:14.099Z,13.63
2019-02-17T14:33:44.978Z,15.27
2019-02-17T14:36:15.419Z,14.15
2019-02-17T14:38:48.720Z,14.00
2019-02-17T14:41:19.522Z,16.10
2019-02-17T14:43:50.770Z,13.62
2019-02-17T14:46:23.186Z,14.68
2019-02-17T14:48:56.147Z,13.17
2019-02-17T14:51:29.491Z,18.50
2019-02-17T14:54:00.836Z,13.90
2019-02-17T14:56:32.888Z,14.87
2019-02-17T14:59:03.271Z,15.30
2019-02-17T15:01:33.572Z,13.37
2019-02-17T15:04:09.016Z,14.47
2019-02-17T15:06:40.598Z,13.83
2019-02-17T15:09:11.939Z,11.97
2019-02-17T15:11:44.032Z,14.95
2019-02-17T15:14:14.444Z,17.13
2019-02-17T15:16:43.008Z,18.73
2019-02-17T15:19:15.056Z,15.43
2019-02-17T15:21:45.443Z,20.17
2019-02-17T15:24:16.715Z,16.60
2019-02-17T15:26:47.511Z,18.37
2019-02-17T15:29:17.399Z,21.47
2019-02-17T15:31:50.640Z,22.10
2019-02-17T15:34:21.394Z,19.93
2019-02-17T15:36:51.235Z,20.87
2019-02-17T15:39:21.031Z,24.77
2019-02-17T15:41:52.303Z,19.40
2019-02-17T15:44:23.109Z,17.03
2019-02-17T15:46:56.370Z,17.70
2019-02-17T15:49:26.819Z,16.77
2019-02-17T15:51:59.504Z,20.93
2019-02-17T15:54:29.177Z,21.63
2019-02-17T15:56:59.987Z,18.27
2019-02-17T15:59:30.451Z,19.57
2019-02-17T16:02:07.541Z,22.90
2019-02-17T16:04:40.750Z,21.20
2019-02-17T16:07:13.616Z,19.23
2019-02-17T16:09:42.945Z,17.63
2019-02-17T16:12:14.608Z,21.03
2019-02-17T16:14:45.170Z,21.23
2019-02-17T16:17:15.060Z,20.23
2019-02-17T16:19:47.760Z,17.00
2019-02-17T16:22:19.284Z,19.23
2019-02-17T16:24:51.632Z,16.40
2019-02-17T16:27:22.288Z,24.77
2019-02-17T16:29:53.136Z,18.32
2019-02-17T16:32:26.382Z,26.83
2019-02-17T16:34:57.840Z,19.37
2019-02-17T16:37:28.593Z,20.47
2019-02-17T16:40:01.211Z,22.73
2019-02-17T16:42:32.447Z,18.90
2019-02-17T16:45:07.716Z,22.30
2019-02-17T16:47:38.512Z,15.60
2019-02-17T16:50:13.339Z,28.47
2019-02-17T16:52:43.458Z,22.77
2019-02-17T16:55:14.288Z,19.67
2019-02-17T16:57:46.326Z,25.67
2019-02-17T17:00:19.886Z,30.50
2019-02-17T17:02:53.204Z,25.90
2019-02-17T17:05:24.111Z,25.07
2019-02-17T17:07:54.488Z,29.37
2019-02-17T17:10:24.864Z,23.57
2019-02-17T17:12:55.265Z,24.77
2019-02-17T17:15:28.178Z,24.87
2019-02-17T17:17:57.284Z,24.92
2019-02-17T17:20:28.719Z,25.63
2019-02-17T17:23:01.299Z,22.67
2019-02-17T17:25:34.163Z,42.93
2019-02-17T17:28:04.336Z,52.77
2019-02-17T17:30:33.974Z,24.87
2019-02-17T17:33:04.386Z,31.87
2019-02-17T17:35:36.622Z,27.37
2019-02-17T17:38:09.844Z,35.73
2019-02-17T17:40:41.399Z,31.43
2019-02-17T17:43:14.383Z,22.77
2019-02-17T17:45:45.206Z,23.40
2019-02-17T17:48:15.637Z,24.20
2019-02-17T17:50:48.052Z,26.83
2019-02-17T17:53:19.443Z,31.63
2019-02-17T17:55:50.805Z,26.17
2019-02-17T17:58:21.189Z,35.43
2019-02-17T18:00:54.447Z,30.63
2019-02-17T18:03:25.035Z,29.87
2019-02-17T18:05:55.178Z,27.55
2019-02-17T18:08:26.530Z,23.80
2019-02-17T18:10:57.355Z,32.60
2019-02-17T18:13:29.218Z,31.70
2019-02-17T18:15:58.314Z,47.40
2019-02-17T18:18:28.371Z,26.30
2019-02-17T18:20:59.220Z,29.57
2019-02-17T18:23:32.532Z,24.33
2019-02-17T18:26:06.772Z,30.77
2019-02-17T18:28:36.649Z,31.47
2019-02-17T18:31:09.969Z,29.13
2019-02-17T18:33:39.810Z,31.50
2019-02-17T18:36:08.950Z,40.53
2019-02-17T18:38:39.791Z,30.90
2019-02-17T18:41:11.121Z,26.90
2019-02-17T18:43:45.708Z,23.23
2019-02-17T18:46:17.070Z,19.53
2019-02-17T18:48:49.969Z,22.77
2019-02-17T18:51:21.432Z,19.65
2019-02-17T18:53:52.823Z,20.72
2019-02-17T18:56:21.894Z,24.33
2019-02-17T18:58:53.300Z,33.13
2019-02-17T19:01:24.675Z,26.97
2019-02-17T19:03:55.245Z,25.23
2019-02-17T19:06:25.060Z,21.07
2019-02-17T19:08:56.398Z,23.43
2019-02-17T19:11:27.670Z,22.73
2019-02-17T19:13:58.255Z,23.97
2019-02-17T19:16:28.849Z,23.93
2019-02-17T19:19:00.079Z,24.93
2019-02-17T19:21:31.498Z,28.07
2019-02-17T19:24:02.850Z,24.23
2019-02-17T19:26:34.226Z,50.40
2019-02-17T19:29:04.785Z,33.80
2019-02-17T19:31:37.558Z,34.67
2019-02-17T19:34:07.941Z,31.20
2019-02-17T19:36:37.046Z,30.08
2019-02-17T19:39:06.250Z,26.70
2019-02-17T19:41:36.880Z,23.83
2019-02-17T19:44:08.503Z,24.73
2019-02-17T19:46:39.921Z,23.27
2019-02-17T19:49:11.086Z,26.97
2019-02-17T19:51:40.915Z,31.20
2019-02-17T19:54:11.688Z,29.10
2019-02-17T19:56:41.679Z,35.70
2019-02-17T19:59:12.143Z,36.90
2019-02-17T20:01:44.301Z,22.07
2019-02-17T20:04:28.754Z,24.60
2019-02-17T20:07:00.017Z,27.10
2019-02-17T20:09:33.427Z,25.17
2019-02-17T20:12:12.278Z,27.50
2019-02-17T20:14:43.509Z,23.60
2019-02-17T20:17:14.311Z,23.80
2019-02-17T20:19:44.172Z,27.27
2019-02-17T20:22:13.993Z,25.97
2019-02-17T20:24:45.361Z,31.67
2019-02-17T20:27:18.255Z,27.47
2019-02-17T20:29:48.723Z,25.57
2019-02-17T20:32:19.491Z,27.60
2019-02-17T20:34:50.287Z,30.33
2019-02-17T20:37:21.135Z,26.37
2019-02-17T20:39:51.531Z,26.27
2019-02-17T20:42:21.364Z,27.43
2019-02-17T20:44:52.629Z,26.77
2019-02-17T20:47:24.095Z,29.97
2019-02-17T20:49:53.238Z,30.50
2019-02-17T20:52:23.073Z,30.37
2019-02-17T20:54:53.207Z,28.57
2019-02-17T20:57:23.967Z,31.87
2019-02-17T20:59:54.182Z,31.47
2019-02-17T21:02:24.750Z,32.43
2019-02-17T21:04:54.398Z,26.60
2019-02-17T21:07:25.043Z,31.67
2019-02-17T21:09:56.505Z,30.32
2019-02-17T21:12:27.907Z,29.07
2019-02-17T21:14:57.937Z,25.23
2019-02-17T21:17:30.159Z,26.73
2019-02-17T21:20:01.006Z,29.77
2019-02-17T21:22:32.237Z,25.93
2019-02-17T21:25:07.886Z,27.70
2019-02-17T21:27:39.137Z,26.53
2019-02-17T21:30:10.992Z,24.73
2019-02-17T21:32:40.976Z,27.10
2019-02-17T21:35:13.711Z,25.20
2019-02-17T21:37:44.338Z,24.93
2019-02-17T21:40:16.381Z,27.80
2019-02-17T21:42:46.668Z,29.47
2019-02-17T21:45:16.635Z,26.10
2019-02-17T21:47:46.943Z,24.27
2019-02-17T21:50:17.871Z,25.90
2019-02-17T21:52:47.573Z,25.63
2019-02-17T21:55:17.803Z,30.73
2019-02-17T21:57:47.824Z,29.25
2019-02-17T22:00:23.406Z,31.90
2019-02-17T22:02:54.162Z,35.07
2019-02-17T22:05:27.775Z,28.40
2019-02-17T22:08:00.110Z,31.30
2019-02-17T22:10:30.771Z,33.07
2019-02-17T22:12:59.839Z,34.77
2019-02-17T22:15:31.093Z,28.87
2019-02-17T22:18:03.336Z,32.80
2019-02-17T22:20:34.699Z,29.60
2019-02-17T22:23:06.031Z,24.33
2019-02-17T22:25:37.407Z,27.27
2019-02-17T22:28:08.818Z,24.53
2019-02-17T22:30:39.314Z,23.50
2019-02-17T22:33:09.166Z,26.57
2019-02-17T22:35:39.857Z,25.23
2019-02-17T22:38:11.204Z,24.70
2019-02-17T22:40:42.578Z,29.37
2019-02-17T22:43:12.865Z,27.93
2019-02-17T22:45:44.167Z,29.07
2019-02-17T22:48:15.523Z,26.07
2019-02-17T22:50:47.270Z,25.60
2019-02-17T22:53:19.696Z,27.90
2019-02-17T22:55:49.713Z,28.33
2019-02-17T22:58:19.694Z,31.93
2019-02-17T23:00:54.278Z,29.00
2019-02-17T23:03:23.912Z,24.17
2019-02-17T23:05:53.955Z,24.07
2019-02-17T23:08:26.054Z,28.20
2019-02-17T23:10:57.494Z,26.75
2019-02-17T23:13:27.778Z,32.13
2019-02-17T23:15:58.213Z,28.35
2019-02-17T23:18:29.511Z,26.80
2019-02-17T23:20:59.542Z,24.90
2019-02-17T23:23:29.652Z,29.80
2019-02-17T23:26:00.977Z,26.48
2019-02-17T23:28:33.205Z,24.83
2019-02-17T23:31:06.196Z,25.20
2019-02-17T23:33:35.840Z,30.40
2019-02-17T23:36:07.285Z,29.47
2019-02-17T23:38:36.939Z,23.67
2019-02-17T23:41:06.544Z,23.50
2019-02-17T23:43:37.997Z,25.37
2019-02-17T23:46:07.669Z,25.43
2019-02-17T23:48:41.011Z,24.03
2019-02-17T23:51:10.859Z,29.67
2019-02-17T23:53:44.210Z,24.03
2019-02-17T23:56:15.536Z,26.33
2019-02-17T23:58:48.781Z,29.07
